• Join FlightAware (Why Join?)
  • Login
  • US Flag 
10:26PM EDT


 

Airport Tracker/Info


-or-


 

Live Flight TrackerFlight Track Log ✈ CPZ5805 ✈ 26-Apr-2013 ✈ KMSP - KBDL

Flight Track Log - Related Links

Times and Time Zones

All times are in EDT time to prevent confusion due to time zone crossing. See the CPZ5805 flight status page for this flight to view local times or setup timezone preferences in your user account.

Time Position Orientation Groundspeed Altitude Reporting Facility
EDT Latitude Longitude Course Direction KTS MPH feet Rate Location/Type
08:13AM 44.8833 -93.1833 70° East 158 182 2,000  Level Minneapolis TRACON
08:14AM 44.8667 -93.1333 115° Southeast 199 229 2,700 1,020 Climbing Minneapolis TRACON
08:14AM 44.8756 -93.0842 76° East 241 277 3,200 2,280 Climbing Minneapolis Center
08:15AM 44.9417 -93.0261 32° Northeast 283 326 6,300 3,000 Climbing Minneapolis Center
08:16AM 45.0064 -92.9611 35° Northeast 289 333 9,400 2,340 Climbing Minneapolis Center
08:17AM 45.0739 -92.8758 42° Northeast 326 375 11,200 2,340 Climbing Minneapolis Center
08:18AM 45.1442 -92.2068 70° East  Level FlightAware Approximate
08:18AM 45.1506 -92.7778 42° Northeast 369 425 14,300  Level Minneapolis Center
08:19AM 45.2403 -92.6614 42° Northeast 368 423 17,200 2,460 Climbing Minneapolis Center
08:20AM 45.2708 -92.5189 73° East 380 437 19,400 1,800 Climbing Minneapolis Center
08:21AM 45.2878 -92.3950 79° East 397 457 20,900 1,800 Climbing Minneapolis Center
08:22AM 45.3150 -92.2033 79° East 413 475 23,100 2,220 Climbing Minneapolis Center
08:23AM 45.3369 -92.0389 79° East 423 487 25,600 2,040 Climbing Minneapolis Center
08:24AM 45.3586 -91.8831 79° East 406 467 27,300 1,440 Climbing Minneapolis Center
08:25AM 45.3811 -91.7239 79° East 412 474 28,600 1,380 Climbing Minneapolis Center
08:27AM 45.4064 -91.5300 79° East 415 478 30,500 1,200 Climbing Minneapolis Center
08:28AM 45.4328 -91.3339 79° East 421 484 31,400 840 Climbing Minneapolis Center
08:29AM 45.4544 -91.1667 79° East 431 496 32,300 780 Climbing Minneapolis Center
08:30AM 45.4686 -90.9956 83° East 434 499 33,000 300 Climbing Minneapolis Center
08:31AM 45.4183 -90.8242 113° Southeast 461 531 33,000  Level Minneapolis Center
08:32AM 45.3772 -90.6503 109° East 466 536 33,000  Level Minneapolis Center
08:33AM 45.3392 -90.4756 107° East 465 535 33,000  Level Minneapolis Center
08:34AM 45.3000 -90.2272 103° East 464 534 33,000  Level Minneapolis Center
08:35AM 45.2736 -90.0467 102° East 468 539 33,000  Level Minneapolis Center
08:36AM 45.2458 -89.8631 102° East 474 545 33,000  Level Minneapolis Center
08:37AM 45.2178 -89.6831 102° East 473 544 33,000  Level Minneapolis Center
08:38AM 45.1906 -89.4997 102° East 477 549 33,000  Level Minneapolis Center
08:39AM 45.1608 -89.3167 103° East 480 552 33,000  Level Minneapolis Center
08:40AM 45.1325 -89.1314 102° East 482 555 33,000  Level Minneapolis Center
08:41AM 45.0981 -88.9086 102° East 486 559 33,000  Level Minneapolis Center
08:42AM 45.0672 -88.7228 103° East 486 559 33,000  Level Minneapolis Center
08:43AM 45.0350 -88.5236 103° East 490 564 33,000  Level Minneapolis Center
08:44AM 45.0039 -88.3353 103° East 491 565 33,000  Level Minneapolis Center
08:45AM 44.9706 -88.1336 103° East 498 573 33,000  Level Minneapolis Center
08:46AM 44.9386 -87.9433 103° East 500 575 33,000  Level Minneapolis Center
08:47AM 44.9056 -87.7506 104° East 505 581 33,000  Level Minneapolis Center
08:48AM 44.8728 -87.5578 103° East 507 583 33,000  Level Minneapolis Center
08:50AM 44.8378 -87.3653 104° East 508 585 33,000  Level Minneapolis Center
08:51AM 44.8047 -87.1753 104° East 504 580 33,000  Level Minneapolis Center
08:52AM 44.7719 -86.9858 104° East 501 577 33,000  Level Minneapolis Center
08:53AM 44.7333 -86.7703 104° East 501 577 33,000  Level Minneapolis Center
08:54AM 44.6978 -86.5794 105° East 503 579 33,000  Level Minneapolis Center
08:55AM 44.6625 -86.3883 104° East 505 581 33,000  Level Minneapolis Center
08:56AM 44.6281 -86.1933 104° East 505 581 33,000  Level Minneapolis Center
08:57AM 44.6011 -86.0453 104° East 504 580 33,000  Level Minneapolis Center
08:58AM 44.5578 -85.8211 105° East 504 580 33,000  Level Minneapolis Center
08:59AM 44.5150 -85.5964 105° East 504 580 33,000  Level Minneapolis Center
09:00AM 44.4792 -85.4086 105° East 502 578 33,000  Level Minneapolis Center
09:01AM 44.4414 -85.2211 106° East 502 578 33,000  Level Minneapolis Center
09:02AM 44.4053 -85.0339 105° East 502 578 33,000  Level Minneapolis Center
09:03AM 44.3689 -84.8456 105° East 503 579 33,000  Level Minneapolis Center
09:04AM 44.3306 -84.6578 106° East 505 581 33,000  Level Minneapolis Center
09:05AM 44.2928 -84.4703 106° East 504 580 33,000  Level Minneapolis Center
09:06AM 44.2622 -84.3211 106° East 502 578 33,000  Level Minneapolis Center
09:07AM 44.2086 -84.0589 106° East 504 580 33,000  Level Minneapolis Center
09:08AM 44.1700 -83.8731 106° East 502 578 33,000  Level Minneapolis Center
09:09AM 44.1303 -83.6864 106° East 503 579 33,000  Level Minneapolis Center
09:10AM 44.0917 -83.4989 106° East 505 581 33,000  Level Minneapolis Center
09:11AM 44.0528 -83.3128 106° East 504 580 33,000  Level Minneapolis Center
09:12AM 44.0103 -83.1281 108° East 503 579 33,000  Level Minneapolis Center
09:13AM 43.9711 -82.9417 106° East 504 580 33,000  Level Minneapolis Center
09:13AM 43.9333 -82.8500 120° Southeast 510 587 33,000  Level Toronto Center
09:14AM 43.9228 -82.7192 96° East 504 580 33,000  Level Minneapolis Center
09:15AM 43.8811 -82.5314 107° East 508 585 33,000  Level Minneapolis Center
09:16AM 43.8392 -82.3469 107° East 506 582 33,000  Level Minneapolis Center
09:17AM 43.7975 -82.1619 107° East 505 581 33,000  Level Minneapolis Center
09:18AM 43.7531 -81.9622 107° East 504 580 33,000  Level Minneapolis Center
09:19AM 43.7092 -81.7772 108° East 507 583 33,000  Level Minneapolis Center
09:20AM 43.6589 -81.5544 107° East 507 583 33,000  Level Minneapolis Center
09:21AM 43.6000 -81.3667 113° Southeast 510 587 33,000  Level Toronto Center
09:22AM 43.5500 -81.1667 109° East 500 575 33,000  Level Toronto Center
09:23AM 43.5000 -80.9833 111° Southeast 500 575 33,000  Level Toronto Center
09:24AM 43.4833 -80.8000 97° East 500 575 33,000  Level Toronto Center
09:25AM 43.4333 -80.6500 115° Southeast 500 575 33,000  Level Toronto Center
09:26AM 43.3833 -80.4667 111° Southeast 500 575 33,000  Level Toronto Center
09:27AM 43.3500 -80.2667 103° East 500 575 33,000  Level Toronto Center
09:28AM 43.3000 -80.0833 110° East 500 575 33,000  Level Toronto Center
09:29AM 43.2500 -79.9333 115° Southeast 490 564 33,000  Level Toronto Center
09:30AM 43.2000 -79.7167 107° East 500 575 33,000  Level Toronto Center
09:31AM 43.1667 -79.5667 107° East 500 575 33,000  Level Toronto Center
09:32AM 43.1167 -79.3833 110° East 500 575 33,000  Level Toronto Center
09:33AM 43.0667 -79.2000 110° East 500 575 33,000  Level Toronto Center
09:34AM 43.0333 -79.0333 105° East 500 575 33,000  Level Toronto Center
09:35AM 42.9833 -78.8333 109° East 490 564 33,000  Level Toronto Center
09:36AM 42.9783 -78.8294 150° Southeast 489 563 33,000  Level Cleveland Center
09:37AM 42.9358 -78.6519 108° East 489 563 33,000  Level Cleveland Center
09:38AM 42.9244 -78.4653 95° East 483 556 33,000  Level Cleveland Center
09:39AM 42.9231 -78.2839 91° East 483 556 33,000  Level Cleveland Center
09:40AM 42.9169 -78.0997 93° East 478 550 33,000  Level Cleveland Center
09:41AM 42.9131 -77.9156 92° East 478 550 33,000  Level Cleveland Center
09:42AM 42.9108 -77.7342 91° East 478 550 33,000  Level Cleveland Center
09:43AM 42.9031 -77.4442 92° East 479 551 33,000  Level Boston Center
09:44AM 42.8992 -77.2961 92° East 479 551 33,000  Level Boston Center
09:45AM 42.8933 -77.1342 93° East 479 551 33,000  Level Boston Center
09:46AM 42.8878 -76.9153 92° East 479 551 33,000  Level Boston Center
09:47AM 42.8822 -76.7336 92° East 479 551 33,000  Level Boston Center
09:48AM 42.8792 -76.5858 92° East 479 551 33,000  Level Boston Center
09:49AM 42.8514 -76.3744 100° East 479 551 33,000  Level Boston Center
09:50AM 42.7944 -76.2067 115° Southeast 478 550 33,000 -300 Level Boston Center
09:51AM 42.7372 -76.0419 115° Southeast 478 550 32,400 -960 Descending Boston Center
09:52AM 42.6800 -75.8692 114° Southeast 486 559 31,100 -1,380 Descending Boston Center
09:53AM 42.6244 -75.7022 114° Southeast 491 565 29,700 -1,320 Descending Boston Center
09:54AM 42.5667 -75.5383 116° Southeast 491 565 28,500 -1,200 Descending Boston Center
09:55AM 42.5125 -75.3753 114° Southeast 486 559 27,300 -1,440 Descending Boston Center
09:56AM 42.4692 -75.1931 108° East 476 548 25,700 -1,500 Descending Boston Center
09:57AM 42.4711 -75.0214 89° East 455 524 24,400 -1,320 Descending Boston Center
09:58AM 42.4747 -74.8553 88° East 444 511 23,100 -1,320 Descending Boston Center
09:59AM 42.4783 -74.6867 88° East 444 511 21,800 -1,320 Descending Boston Center
10:00AM 42.4811 -74.5289 89° East 432 497 20,500 -1,320 Descending Boston Center
10:01AM 42.4819 -74.3686 90° East 427 491 19,200 -1,200 Descending Boston Center
10:02AM 42.4839 -74.2447 89° East 416 479 18,200 -780 Descending Boston Center
10:03AM 42.4867 -74.0617 89° East 405 466 17,700 -780 Descending Boston Center
10:04AM 42.4806 -73.9125 93° East 400 460 16,700 -1,140 Descending Boston Center
10:05AM 42.4425 -73.7708 110° East 395 455 15,500 -1,140 Descending Boston Center
10:06AM 42.4086 -73.6350 109° East 390 449 14,500 -1,200 Descending Boston Center
10:07AM 42.3944 -73.5928 114° Southeast 389 448 13,900 -1,200 Descending Boston Center
10:07AM 42.3725 -73.4994 108° East 390 449 13,300 -1,080 Descending Boston Center
10:08AM 42.3442 -73.3981 111° Southeast 379 436 12,400 -1,140 Descending Boston Center
10:09AM 42.3097 -73.2683 110° East 365 420 11,300 -720 Descending Boston Center
10:10AM 42.2731 -73.1528 113° Southeast 344 396 11,000 -780 Descending Boston Center
10:11AM 42.2194 -73.0681 130° Southeast 291 335 9,800 -1,800 Descending Boston Center
10:12AM 42.1489 -73.0225 154° Southeast 266 306 7,400 -2,280 Descending Boston Center
10:13AM 42.0844 -72.9967 163° South 265 305 5,400 -1,920 Descending Boston Center
10:13AM 42.0781 -72.9911 147° Southeast 266 306 5,200 -420 Descending Boston Center
10:14AM 42.0156 -72.9711 167° South 249 287 5,000 -360 Descending Boston Center
10:15AM 41.9575 -72.9481 164° South 219 252 4,600 -540 Descending Boston Center
10:16AM 41.9033 -72.9311 167° South 204 235 4,000 -420 Descending Boston Center
10:17AM 41.8533 -72.9139 166° South 206 237 3,800 -660 Descending Boston Center
10:18AM 41.8328 -72.8442 112° Southeast 206 237 2,800 -1,020 Descending Boston Center